This is the latest recevied weather packets stored in our database for station/object KA3BQE-13. If no packets are shown the sender has not sent any weather packets the latest 1 day(s).
| Time | Temp. | Humidity | Pressure | Rain* | Wind** | Luminosity | Snow |
|---|---|---|---|---|---|---|---|
| 1778043694 | 8.33° C | 89% | 1012.1 hPa | 0 mm | 0 m/s | 0 W/m² | - |
| 1778043390 | 8.33° C | 88% | 1012.2 hPa | 0 mm | 0.45 m/s, 341° | 0 W/m² | - |
| 1778043087 | 7.78° C | 87% | 1012.3 hPa | 0 mm | 0 m/s | 0 W/m² | - |
| 1778042785 | 8.33° C | 89% | 1012.3 hPa | 0 mm | 0.45 m/s, 48° | 0 W/m² | - |
| 1778042481 | 8.33° C | 88% | 1011.9 hPa | 0 mm | 0 m/s | 0 W/m² | - |
| 1778042179 | 8.89° C | 85% | 1012.1 hPa | 0 mm | 0.45 m/s, 333° | 0 W/m² | - |
| 1778041877 | 8.33° C | 84% | 1012.2 hPa | 0 mm | 0 m/s | 0 W/m² | - |
| 1778041575 | 8.89° C | 85% | 1012 hPa | 0 mm | 0.45 m/s, 69° | 0 W/m² | - |
| 1778041273 | 8.89° C | 84% | 1012.2 hPa | 0 mm | 0 m/s | 0 W/m² | - |
| 1778040972 | 9.44° C | 81% | 1012 hPa | 0 mm | 0.45 m/s, 56° | 0 W/m² | - |
| 1778040668 | 9.44° C | 73% | 1011.9 hPa | 0 mm | 0 m/s | 0 W/m² | - |
| 1778040366 | 9.44° C | 72% | 1012.2 hPa | 0 mm | 0 m/s | 0 W/m² | - |
| 1778040062 | 9.44° C | 73% | 1012.2 hPa | 0 mm | 0.89 m/s, 17° | 0 W/m² | - |
| 1778039759 | 9.44° C | 77% | 1012.5 hPa | 0 mm | 0.89 m/s, 110° | 0 W/m² | - |
| 1778039455 | 8.89° C | 79% | 1012.5 hPa | 0 mm | 0.89 m/s, 13° | 0 W/m² | - |
| 1778039153 | 8.33° C | 91% | 1012.7 hPa | 0 mm | 0.45 m/s, 72° | 0 W/m² | - |
| 1778038850 | 8.89° C | 91% | 1012.5 hPa | 0 mm | 0.45 m/s, 59° | 0 W/m² | - |
| 1778038547 | 8.89° C | 90% | 1012.5 hPa | 0 mm | 0 m/s | 0 W/m² | - |
| 1778038244 | 8.89° C | 90% | 1012.5 hPa | 0 mm | 0.45 m/s, 184° | 0 W/m² | - |
| 1778037941 | 8.89° C | 89% | 1012.5 hPa | 0 mm | 0 m/s | 0 W/m² | - |
| 1778037638 | 8.89° C | 91% | 1012.6 hPa | 0 mm | 0 m/s | 0 W/m² | - |
| 1778037336 | 8.89° C | 91% | 1012.7 hPa | 0 mm | 0.89 m/s, 37° | 0 W/m² | - |
| 1778037032 | 8.89° C | 90% | 1012.7 hPa | 0 mm | 0.89 m/s, 58° | 0 W/m² | - |
| 1778036731 | 8.89° C | 92% | 1013 hPa | 0 mm | 0 m/s | 0 W/m² | - |
| 1778036428 | 8.89° C | 91% | 1012.7 hPa | 0 mm | 0 m/s | 0 W/m² | - |
* Rain latest hour (hover to see other rain measurements)
** Current wind speed in m/s (hover to see current wind gust speed)